Time;durP1;ratioP1;P1;durP2;ratioP2;P2;SDS_P1;SDS_P2;PMS_P1;PMS_P2;Temp;Humidity;BMP_temperature;BMP_pressure;BME280_temperature;BME280_humidity;BME280_pressure;Samples;Min_cycle;Max_cycle;Signal;HPM_P1;HPM_P2
2022/08/20 00:01:08;;;;;;;22.83;19.27;;;18.20;99.90;;;;;;5083999;28;20217;-49
2022/08/20 00:03:37;;;;;;;20.70;18.53;;;18.20;99.90;;;;;;5059774;28;20301;-47
2022/08/20 00:06:08;;;;;;;20.97;17.60;;;18.20;99.90;;;;;;5083937;28;20662;-48
2022/08/20 00:08:35;;;;;;;20.60;17.73;;;18.20;99.90;;;;;;5056514;28;20198;-48
2022/08/20 00:11:05;;;;;;;21.60;17.57;;;18.20;99.90;;;;;;5081979;28;20637;-49
2022/08/20 00:13:35;;;;;;;19.53;16.73;;;18.30;99.90;;;;;;5063556;28;20195;-50
2022/08/20 00:16:03;;;;;;;18.27;16.40;;;18.30;99.90;;;;;;5064292;28;20198;-51
2022/08/20 00:18:30;;;;;;;17.23;14.93;;;18.30;99.90;;;;;;5063111;28;20202;-51
2022/08/20 00:20:57;;;;;;;14.93;13.50;;;18.30;99.90;;;;;;5083336;28;20230;-48
2022/08/20 00:23:26;;;;;;;17.47;15.67;;;18.30;99.90;;;;;;5058652;28;20701;-50
2022/08/20 00:25:53;;;;;;;15.03;13.33;;;18.30;99.90;;;;;;5074729;28;20206;-51
2022/08/20 00:28:21;;;;;;;14.43;12.97;;;18.40;99.90;;;;;;5062454;28;20198;-50
2022/08/20 00:30:48;;;;;;;14.13;12.37;;;18.40;99.90;;;;;;5076143;28;20214;-52
2022/08/20 00:33:18;;;;;;;15.20;13.37;;;18.40;99.90;;;;;;5080286;28;20583;-49
2022/08/20 00:35:49;;;;;;;17.10;13.60;;;18.40;99.90;;;;;;5069900;28;20199;-47
2022/08/20 00:38:16;;;;;;;15.73;13.10;;;18.40;99.90;;;;;;5065065;28;20660;-51
2022/08/20 00:40:46;;;;;;;12.83;11.50;;;18.40;99.90;;;;;;5059025;28;20280;-49
2022/08/20 00:43:30;;;;;;;12.43;11.23;;;18.50;99.90;;;;;;5067681;28;20218;-50
2022/08/20 00:45:57;;;;;;;13.60;12.20;;;18.50;99.90;;;;;;5064152;28;20285;-48
2022/08/20 00:48:26;;;;;;;11.17;9.97;;;18.50;99.90;;;;;;5058312;28;20202;-53
2022/08/20 00:50:56;;;;;;;13.80;11.30;;;18.50;99.90;;;;;;5078229;28;20229;-50
2022/08/20 00:53:25;;;;;;;13.70;11.63;;;18.50;99.90;;;;;;5079712;28;20280;-48
2022/08/20 00:55:53;;;;;;;11.43;10.33;;;18.50;99.90;;;;;;5065944;28;20888;-46
2022/08/20 00:58:21;;;;;;;14.83;12.23;;;18.50;99.90;;;;;;5067597;28;20210;-52
2022/08/20 01:00:48;;;;;;;13.33;12.00;;;18.40;99.90;;;;;;5062065;28;20211;-49
2022/08/20 01:03:19;;;;;;;13.20;11.37;;;18.50;99.90;;;;;;5061735;28;20219;-50
2022/08/20 01:05:50;;;;;;;10.67;9.70;;;18.50;99.90;;;;;;5069398;28;20209;-46
2022/08/20 01:08:19;;;;;;;10.40;9.27;;;18.50;99.90;;;;;;5059241;28;20199;-49
2022/08/20 01:10:49;;;;;;;10.90;9.63;;;18.50;99.90;;;;;;5060999;28;20233;-51
2022/08/20 01:13:19;;;;;;;10.73;9.63;;;18.50;99.90;;;;;;5068199;28;20188;-51
2022/08/20 01:15:50;;;;;;;10.40;9.37;;;18.50;99.90;;;;;;5066216;28;20194;-49
2022/08/20 01:18:21;;;;;;;10.60;9.50;;;18.50;99.90;;;;;;5062154;28;20328;-51
2022/08/20 01:20:52;;;;;;;9.63;8.73;;;18.50;99.90;;;;;;5058959;28;20253;-51
2022/08/20 01:23:33;;;;;;;9.33;8.53;;;18.50;99.90;;;;;;5080075;28;20210;-49
2022/08/20 01:26:04;;;;;;;11.03;9.93;;;18.50;99.90;;;;;;5063832;28;20679;-51
2022/08/20 01:28:36;;;;;;;10.17;9.17;;;18.50;99.90;;;;;;5068787;28;20186;-50
2022/08/20 01:31:05;;;;;;;9.77;8.97;;;18.50;99.90;;;;;;5063193;28;20719;-49
2022/08/20 01:33:32;;;;;;;10.13;9.20;;;18.50;99.90;;;;;;5057557;28;20195;-49
2022/08/20 01:35:59;;;;;;;12.17;10.97;;;18.50;99.90;;;;;;5063153;28;20205;-50
2022/08/20 01:38:28;;;;;;;12.07;10.87;;;18.50;99.90;;;;;;5065319;28;20199;-50
2022/08/20 01:41:20;;;;;;;11.33;10.30;;;18.50;99.90;;;;;;5054636;28;20218;-47
2022/08/20 01:43:48;;;;;;;12.63;11.37;;;18.50;99.90;;;;;;5059913;28;20321;-47
2022/08/20 01:46:16;;;;;;;14.00;12.50;;;18.50;99.90;;;;;;5064580;28;20211;-50
2022/08/20 01:48:44;;;;;;;13.77;12.27;;;18.50;99.90;;;;;;5064552;28;20958;-47
2022/08/20 01:51:14;;;;;;;13.70;12.10;;;18.50;99.90;;;;;;5082159;28;20226;-46
2022/08/20 01:53:44;;;;;;;13.83;12.40;;;18.50;99.90;;;;;;5061367;28;20203;-48
2022/08/20 01:56:14;;;;;;;13.30;11.90;;;18.50;99.90;;;;;;5066920;28;20213;-51
2022/08/20 01:58:48;;;;;;;12.27;11.07;;;18.50;99.90;;;;;;5064642;28;20199;-49
2022/08/20 02:01:21;;;;;;;12.50;11.20;;;18.50;99.90;;;;;;5071662;28;20216;-53
2022/08/20 02:03:48;;;;;;;13.50;10.93;;;18.50;99.90;;;;;;5066049;28;20214;-51
2022/08/20 02:06:16;;;;;;;11.00;9.90;;;18.40;99.90;;;;;;5074162;28;20196;-52
2022/08/20 02:08:43;;;;;;;11.07;9.90;;;18.40;99.90;;;;;;5068740;28;20197;-51
2022/08/20 02:11:11;;;;;;;12.23;11.00;;;18.40;99.90;;;;;;5066690;28;20225;-49
2022/08/20 02:13:39;;;;;;;10.23;9.33;;;18.40;99.90;;;;;;5062460;28;20395;-47
2022/08/20 02:16:08;;;;;;;10.00;9.10;;;18.40;99.90;;;;;;5069012;28;20683;-50
2022/08/20 02:18:36;;;;;;;11.17;9.93;;;18.40;99.90;;;;;;5062541;28;20191;-46
2022/08/20 02:21:03;;;;;;;9.83;8.93;;;18.40;99.90;;;;;;5066438;28;20621;-48
2022/08/20 02:23:30;;;;;;;13.60;9.63;;;18.40;99.90;;;;;;5059469;28;20203;-49
2022/08/20 02:25:57;;;;;;;9.70;8.23;;;18.40;99.90;;;;;;5066549;28;20206;-50
2022/08/20 02:28:24;;;;;;;9.90;8.90;;;18.40;99.90;;;;;;5054327;28;20226;-52
2022/08/20 02:30:54;;;;;;;9.10;8.20;;;18.40;99.90;;;;;;5073673;28;20223;-47
2022/08/20 02:33:23;;;;;;;9.63;8.63;;;18.30;99.90;;;;;;5063930;28;20200;-50
2022/08/20 02:35:51;;;;;;;9.97;9.03;;;18.40;99.90;;;;;;5080316;28;20190;-50
2022/08/20 02:38:18;;;;;;;8.90;8.10;;;18.40;99.90;;;;;;5065383;28;20206;-50
2022/08/20 02:40:47;;;;;;;11.97;8.73;;;18.30;99.90;;;;;;5073575;28;20246;-52
2022/08/20 02:43:16;;;;;;;9.40;7.50;;;18.30;99.90;;;;;;5080122;28;20205;-50
2022/08/20 02:45:43;;;;;;;8.97;7.43;;;18.30;99.90;;;;;;5066482;28;20364;-48
2022/08/20 02:48:19;;;;;;;8.07;7.37;;;18.40;99.90;;;;;;5072789;28;20230;-52
2022/08/20 02:50:50;;;;;;;8.17;7.47;;;18.30;99.90;;;;;;5077497;28;20206;-49
2022/08/20 02:53:18;;;;;;;9.13;8.23;;;18.30;99.90;;;;;;5081215;28;20194;-49
2022/08/20 02:55:45;;;;;;;10.10;9.10;;;18.30;99.90;;;;;;5064311;28;20924;-49
2022/08/20 02:58:11;;;;;;;8.30;7.60;;;18.30;99.90;;;;;;5065029;28;20252;-49
2022/08/20 03:00:40;;;;;;;10.97;8.83;;;18.30;99.90;;;;;;5052543;28;20225;-52
2022/08/20 03:03:08;;;;;;;10.47;8.60;;;18.30;99.90;;;;;;5078924;28;20693;-53
2022/08/20 03:05:35;;;;;;;9.80;8.87;;;18.30;99.90;;;;;;5065661;28;20954;-51
2022/08/20 03:08:04;;;;;;;11.33;9.67;;;18.30;99.90;;;;;;5074816;28;20202;-48
2022/08/20 03:10:33;;;;;;;11.17;10.03;;;18.30;99.90;;;;;;5063730;28;20230;-49
2022/08/20 03:13:01;;;;;;;10.30;8.50;;;18.30;99.90;;;;;;5065963;28;20210;-46
2022/08/20 03:15:29;;;;;;;10.40;9.30;;;18.30;99.90;;;;;;5050889;28;20545;-51
2022/08/20 03:17:56;;;;;;;10.03;9.03;;;18.30;99.90;;;;;;5073590;28;20282;-50
2022/08/20 03:20:25;;;;;;;9.10;8.20;;;18.30;99.90;;;;;;5068951;28;20230;-52
2022/08/20 03:22:53;;;;;;;9.20;8.30;;;18.30;99.90;;;;;;5064129;28;20203;-50
2022/08/20 03:25:21;;;;;;;8.33;7.53;;;18.30;99.90;;;;;;5061998;28;20837;-51
2022/08/20 03:27:49;;;;;;;10.70;9.40;;;18.30;99.90;;;;;;5065808;28;20206;-46
2022/08/20 03:30:18;;;;;;;8.23;7.47;;;18.20;99.90;;;;;;5060662;28;20731;-53
2022/08/20 03:32:46;;;;;;;8.53;7.40;;;18.20;99.90;;;;;;5061792;28;20259;-49
2022/08/20 03:35:15;;;;;;;11.17;9.97;;;18.30;99.90;;;;;;5078110;28;21110;-47
2022/08/20 03:37:43;;;;;;;11.57;9.87;;;18.30;99.90;;;;;;5069958;28;20190;-49
2022/08/20 03:40:14;;;;;;;10.97;9.77;;;18.30;99.90;;;;;;5065339;28;20226;-48
2022/08/20 03:42:42;;;;;;;11.23;9.70;;;18.30;99.90;;;;;;5060479;28;20793;-46
2022/08/20 03:45:11;;;;;;;12.80;10.57;;;18.30;99.90;;;;;;5083784;28;20220;-50
2022/08/20 03:47:38;;;;;;;14.80;11.23;;;18.30;99.90;;;;;;5063461;28;20267;-49
2022/08/20 03:50:08;;;;;;;11.50;10.30;;;18.30;99.90;;;;;;5068362;28;20790;-49
2022/08/20 03:52:36;;;;;;;14.50;11.60;;;18.30;99.90;;;;;;5060662;28;20191;-51
2022/08/20 03:55:04;;;;;;;14.07;11.73;;;18.30;99.90;;;;;;5063854;28;20197;-49
2022/08/20 03:57:31;;;;;;;15.50;12.07;;;18.30;99.90;;;;;;5065019;28;20213;-47
2022/08/20 03:59:59;;;;;;;14.57;12.43;;;18.30;99.90;;;;;;5064701;28;20582;-48
2022/08/20 04:02:26;;;;;;;16.33;11.87;;;18.40;99.90;;;;;;5055549;28;20214;-49
2022/08/20 04:04:53;;;;;;;17.00;12.57;;;18.40;99.90;;;;;;5066583;28;20252;-48
2022/08/20 04:07:24;;;;;;;15.77;12.67;;;18.40;99.90;;;;;;5070024;28;20552;-50
2022/08/20 04:09:52;;;;;;;15.53;13.03;;;18.40;99.90;;;;;;5073273;28;20300;-51
2022/08/20 04:12:18;;;;;;;15.10;12.30;;;18.40;99.90;;;;;;5066347;28;20202;-49
2022/08/20 04:14:45;;;;;;;13.23;11.07;;;18.40;99.90;;;;;;5077832;28;20186;-48
2022/08/20 04:17:13;;;;;;;13.30;11.67;;;18.40;99.90;;;;;;5068512;28;20290;-52
2022/08/20 04:19:42;;;;;;;11.73;10.50;;;18.40;99.90;;;;;;5055258;28;20212;-47
2022/08/20 04:22:09;;;;;;;15.50;11.40;;;18.40;99.90;;;;;;5066509;28;20376;-48
2022/08/20 04:24:36;;;;;;;12.67;11.00;;;18.40;99.90;;;;;;5055982;28;20259;-52
2022/08/20 04:27:04;;;;;;;12.20;11.00;;;18.40;99.90;;;;;;5065712;28;20694;-49
2022/08/20 04:29:32;;;;;;;16.43;12.20;;;18.40;99.90;;;;;;5067180;28;20272;-48
2022/08/20 04:32:00;;;;;;;17.10;12.60;;;18.40;99.90;;;;;;5065674;28;20201;-48
2022/08/20 04:34:30;;;;;;;15.03;12.87;;;18.40;99.90;;;;;;5055043;28;20225;-51
2022/08/20 04:36:57;;;;;;;14.90;11.50;;;18.50;99.90;;;;;;5073565;28;20190;-49
2022/08/20 04:39:23;;;;;;;16.00;11.43;;;18.50;99.90;;;;;;5062856;28;20211;-51
2022/08/20 04:41:49;;;;;;;14.10;11.67;;;18.50;99.90;;;;;;5063208;28;20242;-50
2022/08/20 04:44:16;;;;;;;14.23;11.70;;;18.50;99.90;;;;;;5059864;28;20714;-53
2022/08/20 04:46:43;;;;;;;14.93;11.57;;;18.50;99.90;;;;;;5061795;28;20187;-49
2022/08/20 04:49:11;;;;;;;13.03;11.67;;;18.50;99.90;;;;;;5067810;28;20281;-53
2022/08/20 04:51:39;;;;;;;12.30;9.73;;;18.50;99.90;;;;;;5060701;28;20943;-52
2022/08/20 04:54:06;;;;;;;15.03;13.20;;;18.50;99.90;;;;;;5064567;28;20197;-50
2022/08/20 04:56:37;;;;;;;12.83;9.97;;;18.50;99.90;;;;;;5059753;28;20197;-49
2022/08/20 04:59:06;;;;;;;15.40;11.83;;;18.50;99.90;;;;;;5063872;28;20781;-49
2022/08/20 05:01:33;;;;;;;17.73;12.80;;;18.60;99.90;;;;;;5059993;28;20222;-53
2022/08/20 05:04:00;;;;;;;13.37;11.80;;;18.60;99.90;;;;;;5066627;28;20189;-48
2022/08/20 05:06:29;;;;;;;14.77;12.50;;;18.60;99.90;;;;;;5053404;28;20275;-52
2022/08/20 05:08:59;;;;;;;20.90;12.83;;;18.60;99.90;;;;;;5070934;28;20244;-49
2022/08/20 05:11:27;;;;;;;16.47;12.33;;;18.60;99.90;;;;;;5058253;28;20231;-51
2022/08/20 05:13:53;;;;;;;15.97;13.13;;;18.60;99.90;;;;;;5068265;28;20206;-49
2022/08/20 05:16:21;;;;;;;15.23;13.20;;;18.70;99.90;;;;;;5077167;28;20194;-52
2022/08/20 05:18:48;;;;;;;16.57;12.77;;;18.70;99.90;;;;;;5067819;28;20218;-47
2022/08/20 05:21:15;;;;;;;18.93;13.93;;;18.70;99.90;;;;;;5070730;28;20213;-53
2022/08/20 05:23:41;;;;;;;17.17;13.57;;;18.70;99.90;;;;;;5065171;28;20202;-48
2022/08/20 05:26:10;;;;;;;17.53;13.97;;;18.70;99.90;;;;;;5063981;28;20234;-50
2022/08/20 05:28:39;;;;;;;16.07;13.30;;;18.80;99.90;;;;;;5058050;28;20198;-47
2022/08/20 05:31:08;;;;;;;20.57;14.23;;;18.80;99.90;;;;;;5084492;28;20300;-47
2022/08/20 05:33:37;;;;;;;18.50;14.23;;;18.80;99.90;;;;;;5054421;28;22414;-47
2022/08/20 05:36:06;;;;;;;15.07;12.13;;;18.90;99.90;;;;;;5074383;28;20194;-47
2022/08/20 05:38:34;;;;;;;16.97;14.17;;;18.90;99.90;;;;;;5051678;28;20884;-48
2022/08/20 05:41:01;;;;;;;21.07;14.43;;;18.90;99.90;;;;;;5074649;28;20220;-48
2022/08/20 05:43:32;;;;;;;18.63;14.73;;;19.00;99.90;;;;;;5057600;28;20221;-48
2022/08/20 05:46:00;;;;;;;17.97;13.60;;;19.00;99.90;;;;;;5067777;28;20221;-46
2022/08/20 05:48:27;;;;;;;20.63;15.10;;;19.10;99.90;;;;;;5074556;28;20194;-53
2022/08/20 05:50:55;;;;;;;19.27;13.93;;;19.10;99.90;;;;;;5075475;28;20222;-49
2022/08/20 05:53:24;;;;;;;16.20;14.03;;;19.10;99.90;;;;;;5052729;28;20293;-48
2022/08/20 05:55:51;;;;;;;17.97;15.00;;;19.20;99.90;;;;;;5069360;28;20191;-50
2022/08/20 05:58:22;;;;;;;17.87;14.47;;;19.20;99.90;;;;;;5064969;28;20694;-52
2022/08/20 06:00:51;;;;;;;20.07;14.53;;;19.20;99.90;;;;;;5055585;28;20284;-53
2022/08/20 06:06:03;;;;;;;17.33;13.90;;;19.20;99.90;;;;;;5061148;28;20312;-48
2022/08/20 06:08:30;;;;;;;19.33;14.80;;;19.20;99.90;;;;;;5060087;28;20242;-52
2022/08/20 06:10:57;;;;;;;18.77;14.17;;;19.30;99.90;;;;;;5067110;28;20244;-50
2022/08/20 06:13:25;;;;;;;18.63;13.93;;;19.30;99.90;;;;;;5072739;28;20195;-52
2022/08/20 06:15:53;;;;;;;18.80;13.07;;;19.40;99.90;;;;;;5060313;28;20294;-54
2022/08/20 06:18:20;;;;;;;18.23;14.73;;;19.40;99.90;;;;;;5066577;28;20267;-50
2022/08/20 06:20:48;;;;;;;16.27;13.73;;;19.40;99.90;;;;;;5069078;28;20232;-51
2022/08/20 06:23:15;;;;;;;19.17;15.37;;;19.40;99.90;;;;;;5068774;28;20201;-53
2022/08/20 06:25:42;;;;;;;18.87;14.77;;;19.40;99.90;;;;;;5062768;28;20240;-50
2022/08/20 06:28:09;;;;;;;20.60;14.40;;;19.40;99.90;;;;;;5071422;28;20273;-50
2022/08/20 06:30:36;;;;;;;15.93;13.33;;;19.50;99.90;;;;;;5067029;28;20226;-46
2022/08/20 06:33:04;;;;;;;17.30;14.17;;;19.50;99.90;;;;;;5068986;28;20432;-50
2022/08/20 06:35:31;;;;;;;18.27;14.20;;;19.50;99.90;;;;;;5070041;28;20667;-49
2022/08/20 06:37:59;;;;;;;18.93;14.40;;;19.50;99.90;;;;;;5070242;28;20259;-46
2022/08/20 06:40:28;;;;;;;18.13;14.13;;;19.50;99.90;;;;;;5061170;28;20869;-48
2022/08/20 06:42:55;;;;;;;17.70;13.77;;;19.60;99.90;;;;;;5065959;28;20279;-46
2022/08/20 06:45:24;;;;;;;17.80;14.83;;;19.60;99.90;;;;;;5070278;28;20225;-49
2022/08/20 06:47:52;;;;;;;14.80;13.27;;;19.60;99.90;;;;;;5062090;28;20574;-49
2022/08/20 06:50:23;;;;;;;15.47;13.77;;;19.70;99.90;;;;;;5061594;28;20288;-47
2022/08/20 06:52:50;;;;;;;14.40;12.73;;;19.70;99.90;;;;;;5062732;28;20668;-48
2022/08/20 06:55:17;;;;;;;16.47;13.87;;;19.80;99.90;;;;;;5060168;28;20199;-45
2022/08/20 06:57:44;;;;;;;14.83;13.27;;;19.90;99.90;;;;;;5074902;28;20567;-46
2022/08/20 07:00:15;;;;;;;16.37;13.10;;;20.00;99.90;;;;;;5062848;28;21001;-47
2022/08/20 07:02:42;;;;;;;13.33;12.00;;;20.10;99.90;;;;;;5066127;28;20202;-49
2022/08/20 07:05:10;;;;;;;15.53;12.47;;;20.10;99.90;;;;;;5073460;28;20213;-47
2022/08/20 07:07:38;;;;;;;14.67;12.87;;;20.20;99.90;;;;;;5072363;28;20195;-50
2022/08/20 07:10:08;;;;;;;13.07;11.57;;;20.30;99.90;;;;;;5066083;28;20214;-46
2022/08/20 07:12:36;;;;;;;12.77;10.13;;;20.30;99.90;;;;;;5057457;28;20213;-48
2022/08/20 07:15:04;;;;;;;11.50;10.30;;;20.30;99.90;;;;;;5069183;28;20939;-52
2022/08/20 07:17:31;;;;;;;9.10;8.30;;;20.40;99.90;;;;;;5079102;28;20213;-48
2022/08/20 07:19:58;;;;;;;9.33;8.43;;;20.50;99.90;;;;;;5060760;28;20227;-46
2022/08/20 07:22:26;;;;;;;8.03;7.20;;;20.60;99.90;;;;;;5080240;28;20204;-47
2022/08/20 07:24:53;;;;;;;10.03;7.63;;;20.60;99.90;;;;;;5072739;28;20572;-50
2022/08/20 07:27:22;;;;;;;11.48;7.80;;;20.70;99.90;;;;;;5057233;28;20216;-46
2022/08/20 07:32:35;;;;;;;7.33;6.60;;;20.70;99.90;;;;;;5071235;28;20194;-49
2022/08/20 07:35:05;;;;;;;7.03;6.43;;;20.80;99.90;;;;;;5061762;28;20829;-46
2022/08/20 07:37:36;;;;;;;7.47;6.77;;;20.80;99.90;;;;;;5071634;28;20690;-46
2022/08/20 07:40:06;;;;;;;7.03;6.37;;;20.80;99.90;;;;;;5064634;28;20214;-49
2022/08/20 07:42:33;;;;;;;7.32;5.60;;;20.90;99.90;;;;;;5069725;28;20211;-51
2022/08/20 07:45:00;;;;;;;5.05;4.65;;;21.00;99.90;;;;;;5054975;28;20197;-46
2022/08/20 07:47:27;;;;;;;5.32;4.80;;;21.00;99.90;;;;;;5073780;28;20561;-46
2022/08/20 07:49:54;;;;;;;4.43;4.03;;;20.90;99.90;;;;;;5059270;28;20234;-45
2022/08/20 07:52:21;;;;;;;4.25;3.72;;;20.90;99.90;;;;;;5080442;28;20198;-45
2022/08/20 07:54:48;;;;;;;6.05;3.47;;;20.90;99.90;;;;;;5062515;28;20290;-50
2022/08/20 07:57:17;;;;;;;5.20;3.63;;;21.00;99.90;;;;;;5072153;28;20197;-46
2022/08/20 07:59:45;;;;;;;3.90;3.00;;;21.00;99.90;;;;;;5060955;28;20198;-53
2022/08/20 08:02:12;;;;;;;3.10;2.90;;;21.20;99.90;;;;;;5064315;28;20207;-46
2022/08/20 08:04:39;;;;;;;4.43;2.70;;;21.20;99.90;;;;;;5060451;28;20706;-46
2022/08/20 08:07:06;;;;;;;3.17;2.65;;;21.40;99.90;;;;;;5067515;28;20309;-48
2022/08/20 08:09:34;;;;;;;4.22;3.10;;;21.50;99.90;;;;;;5059902;28;20321;-45
2022/08/20 08:12:02;;;;;;;5.20;3.28;;;21.50;99.90;;;;;;5067689;28;20214;-49
2022/08/20 08:14:33;;;;;;;3.58;2.67;;;21.60;99.90;;;;;;5060107;28;20210;-46
2022/08/20 08:17:03;;;;;;;6.22;3.90;;;21.60;99.90;;;;;;5069412;28;20670;-45
2022/08/20 08:19:37;;;;;;;4.10;3.58;;;21.70;99.90;;;;;;5068940;28;20206;-49
2022/08/20 08:22:04;;;;;;;3.75;3.10;;;21.70;99.90;;;;;;5065113;28;20650;-47
2022/08/20 08:24:32;;;;;;;4.75;3.55;;;21.60;99.90;;;;;;5065521;28;20613;-47
2022/08/20 08:26:58;;;;;;;4.38;3.33;;;21.60;99.90;;;;;;5067147;28;20206;-46
2022/08/20 08:29:26;;;;;;;3.25;3.00;;;21.70;99.90;;;;;;5068685;28;20221;-50
2022/08/20 08:31:53;;;;;;;5.72;3.08;;;21.60;99.90;;;;;;5063092;28;20229;-46
2022/08/20 08:34:21;;;;;;;5.82;3.33;;;21.70;99.90;;;;;;5067398;28;20209;-49
2022/08/20 08:36:49;;;;;;;4.40;3.42;;;21.70;99.90;;;;;;5067390;28;20259;-50
2022/08/20 08:39:16;;;;;;;3.53;3.15;;;21.70;99.90;;;;;;5063006;28;20852;-50
2022/08/20 08:41:48;;;;;;;6.05;2.38;;;21.80;99.90;;;;;;5068281;28;20839;-45
2022/08/20 08:44:22;;;;;;;6.03;2.97;;;21.80;99.90;;;;;;5071994;28;20202;-45
2022/08/20 08:46:52;;;;;;;3.75;2.30;;;21.90;99.90;;;;;;5056018;28;20305;-45
2022/08/20 08:49:24;;;;;;;2.25;2.03;;;22.00;99.90;;;;;;5068004;28;20209;-46
2022/08/20 08:51:58;;;;;;;1.70;1.60;;;22.00;99.90;;;;;;5064145;28;20229;-45
2022/08/20 08:54:28;;;;;;;1.92;1.65;;;22.10;99.90;;;;;;5061022;28;20550;-46
2022/08/20 08:56:55;;;;;;;4.07;2.17;;;22.20;99.90;;;;;;5067959;28;20192;-46
2022/08/20 08:59:23;;;;;;;5.07;2.63;;;22.30;99.90;;;;;;5072396;28;20659;-47
2022/08/20 09:01:52;;;;;;;2.88;2.40;;;22.50;99.90;;;;;;5054254;28;20218;-46
2022/08/20 09:04:22;;;;;;;2.05;1.80;;;22.50;99.90;;;;;;5069662;28;20221;-46
2022/08/20 09:06:52;;;;;;;3.35;2.08;;;22.60;99.90;;;;;;5057527;28;23018;-45
2022/08/20 09:09:22;;;;;;;2.83;1.67;;;22.70;99.90;;;;;;5070359;28;20650;-45
2022/08/20 09:11:52;;;;;;;5.00;2.38;;;22.80;99.90;;;;;;5064911;28;20222;-46
2022/08/20 09:14:18;;;;;;;2.88;1.77;;;22.80;99.90;;;;;;5071535;28;20206;-47
2022/08/20 09:16:46;;;;;;;3.42;1.98;;;22.70;99.90;;;;;;5063742;28;20339;-47
2022/08/20 09:19:13;;;;;;;4.47;2.30;;;22.70;99.90;;;;;;5072719;28;20190;-46
2022/08/20 09:21:41;;;;;;;2.13;1.92;;;22.70;99.90;;;;;;5056007;28;20246;-49
2022/08/20 09:24:08;;;;;;;4.00;2.42;;;22.60;99.90;;;;;;5062436;28;20189;-50
2022/08/20 09:26:35;;;;;;;3.78;2.00;;;22.50;99.90;;;;;;5071052;28;20581;-45
2022/08/20 09:29:02;;;;;;;6.47;2.05;;;22.60;99.90;;;;;;5067818;28;20200;-49
2022/08/20 09:31:29;;;;;;;5.22;2.28;;;22.60;99.90;;;;;;5069656;28;20583;-47
2022/08/20 09:33:56;;;;;;;6.53;2.95;;;22.70;99.90;;;;;;5059948;28;20670;-48
2022/08/20 09:36:23;;;;;;;6.47;2.33;;;22.80;99.90;;;;;;5064548;28;20202;-46
2022/08/20 09:38:51;;;;;;;4.78;2.13;;;22.80;99.90;;;;;;5061917;28;20264;-47
2022/08/20 09:41:20;;;;;;;7.68;2.30;;;22.90;99.90;;;;;;5063280;28;20268;-52
2022/08/20 09:43:47;;;;;;;4.80;1.80;;;22.90;99.90;;;;;;5070119;28;20217;-47
2022/08/20 09:46:14;;;;;;;3.45;1.60;;;22.90;99.90;;;;;;5056104;28;20969;-48
2022/08/20 09:48:41;;;;;;;7.00;1.83;;;23.00;99.90;;;;;;5053091;28;20218;-46
2022/08/20 09:51:08;;;;;;;5.47;1.80;;;23.00;99.90;;;;;;5056817;28;21056;-47
2022/08/20 09:53:35;;;;;;;5.90;1.60;;;23.00;99.90;;;;;;5062147;28;20593;-50
2022/08/20 09:56:04;;;;;;;4.07;1.60;;;23.10;99.90;;;;;;5054986;28;20186;-49
2022/08/20 09:58:36;;;;;;;2.15;1.80;;;23.20;99.90;;;;;;5080424;28;20210;-47
2022/08/20 10:01:08;;;;;;;5.45;2.13;;;23.20;99.90;;;;;;5067485;28;20281;-46
2022/08/20 10:03:36;;;;;;;7.25;2.35;;;23.10;99.90;;;;;;5065915;28;20195;-45
2022/08/20 10:06:02;;;;;;;4.53;2.00;;;23.00;99.90;;;;;;5052420;28;20307;-46
2022/08/20 10:08:30;;;;;;;3.67;2.15;;;23.00;99.90;;;;;;5067734;28;20198;-46
2022/08/20 10:10:56;;;;;;;2.95;1.80;;;23.00;99.90;;;;;;5063500;28;20223;-46
2022/08/20 10:13:25;;;;;;;3.72;1.88;;;23.10;99.90;;;;;;5063562;28;20202;-46
2022/08/20 10:15:51;;;;;;;3.67;1.92;;;23.10;99.90;;;;;;5069819;28;20202;-49
2022/08/20 10:18:18;;;;;;;6.18;1.90;;;23.10;99.90;;;;;;5072530;28;20969;-45
2022/08/20 10:20:45;;;;;;;5.30;1.85;;;23.20;99.90;;;;;;5056698;28;20234;-50
2022/08/20 10:23:12;;;;;;;4.43;1.50;;;23.20;99.90;;;;;;5065661;28;20286;-47
2022/08/20 10:25:39;;;;;;;7.18;1.90;;;23.20;99.90;;;;;;5061223;28;20205;-45
2022/08/20 10:28:05;;;;;;;6.10;1.70;;;23.20;99.90;;;;;;5062755;28;20226;-44
2022/08/20 10:30:34;;;;;;;2.90;1.67;;;23.10;99.90;;;;;;5073823;28;20296;-52
2022/08/20 10:33:01;;;;;;;3.67;2.35;;;23.20;99.90;;;;;;5065918;28;20296;-51
2022/08/20 10:35:28;;;;;;;7.95;2.40;;;23.30;99.90;;;;;;5069357;28;20259;-47
2022/08/20 10:37:56;;;;;;;5.90;2.20;;;23.30;99.90;;;;;;5060648;28;20217;-47
2022/08/20 10:40:23;;;;;;;8.45;2.28;;;23.30;99.90;;;;;;5069072;28;20313;-46
2022/08/20 10:42:50;;;;;;;7.93;2.28;;;23.30;99.90;;;;;;5062317;28;20210;-51
2022/08/20 10:45:18;;;;;;;3.33;1.75;;;23.40;99.90;;;;;;5063326;28;20285;-46
2022/08/20 10:47:46;;;;;;;5.47;2.17;;;23.60;99.90;;;;;;5074909;28;20225;-51
2022/08/20 10:50:15;;;;;;;6.97;2.60;;;23.70;99.90;;;;;;5062661;28;20297;-46
2022/08/20 10:52:42;;;;;;;6.72;2.10;;;23.50;99.90;;;;;;5059566;28;20282;-49
2022/08/20 10:55:09;;;;;;;4.50;2.22;;;23.40;99.90;;;;;;5057882;28;21355;-48
2022/08/20 10:57:39;;;;;;;5.70;2.20;;;23.30;99.90;;;;;;5066252;28;20199;-49
2022/08/20 11:00:07;;;;;;;3.17;1.70;;;23.20;99.90;;;;;;5059448;28;20226;-46
2022/08/20 11:02:34;;;;;;;3.22;1.67;;;23.20;99.90;;;;;;5065421;28;20655;-46
2022/08/20 11:05:03;;;;;;;5.03;2.10;;;23.20;99.90;;;;;;5074062;28;20194;-47
2022/08/20 11:07:33;;;;;;;4.55;1.83;;;23.20;99.90;;;;;;5064644;28;20245;-48
2022/08/20 11:10:00;;;;;;;5.88;1.92;;;23.10;99.90;;;;;;5064859;28;20226;-48
2022/08/20 11:12:27;;;;;;;5.65;1.83;;;23.20;99.90;;;;;;5077940;28;20217;-46
2022/08/20 11:14:54;;;;;;;4.97;1.58;;;23.30;99.90;;;;;;5067875;28;20214;-48
2022/08/20 11:17:23;;;;;;;7.57;1.25;;;23.30;99.90;;;;;;5076093;28;20268;-46
2022/08/20 11:19:50;;;;;;;4.10;1.52;;;23.30;99.90;;;;;;5079537;28;20217;-48
2022/08/20 11:22:19;;;;;;;3.03;1.20;;;23.30;99.90;;;;;;5062599;28;21605;-45
2022/08/20 11:24:46;;;;;;;5.43;1.20;;;23.30;99.50;;;;;;5072314;28;20233;-47
2022/08/20 11:27:24;;;;;;;3.83;1.25;;;23.20;99.30;;;;;;5063810;28;21005;-47
2022/08/20 11:29:51;;;;;;;5.00;1.88;;;23.20;98.20;;;;;;5077430;28;20232;-48
2022/08/20 11:32:18;;;;;;;4.00;1.38;;;23.20;98.80;;;;;;5073442;28;20196;-47
2022/08/20 11:34:45;;;;;;;3.53;1.20;;;23.10;98.70;;;;;;5066528;28;20652;-47
2022/08/20 11:37:12;;;;;;;7.97;1.50;;;23.10;98.60;;;;;;5062789;28;20190;-49
2022/08/20 11:39:40;;;;;;;4.43;1.48;;;23.30;98.70;;;;;;5062009;28;20203;-51
2022/08/20 11:42:08;;;;;;;6.38;1.42;;;23.50;98.40;;;;;;5058639;28;21375;-46
2022/08/20 11:44:35;;;;;;;2.88;1.10;;;23.60;98.00;;;;;;5067902;28;20217;-49
2022/08/20 11:47:03;;;;;;;5.88;1.55;;;23.60;97.60;;;;;;5058621;28;20222;-46
2022/08/20 11:49:30;;;;;;;3.33;1.23;;;23.60;97.00;;;;;;5071701;28;20265;-45
2022/08/20 11:51:57;;;;;;;3.70;1.23;;;23.50;97.20;;;;;;5062040;28;20203;-46
2022/08/20 11:54:24;;;;;;;2.92;1.25;;;23.40;96.90;;;;;;5065014;28;20206;-45
2022/08/20 11:56:52;;;;;;;5.30;1.23;;;23.40;96.70;;;;;;5060989;28;20203;-52
2022/08/20 11:59:19;;;;;;;2.72;1.45;;;23.40;96.50;;;;;;5070339;28;20198;-45
2022/08/20 12:01:46;;;;;;;8.15;1.52;;;23.40;96.40;;;;;;5065704;28;20215;-50
2022/08/20 12:04:14;;;;;;;5.15;1.42;;;23.30;96.20;;;;;;5074575;28;20886;-52
2022/08/20 12:06:40;;;;;;;2.70;1.30;;;23.40;96.10;;;;;;5068782;28;20256;-54
2022/08/20 12:09:07;;;;;;;6.43;1.40;;;23.60;95.60;;;;;;5059404;28;22220;-55
2022/08/20 12:11:34;;;;;;;3.40;0.93;;;23.60;94.80;;;;;;5067678;28;20283;-53
2022/08/20 12:14:02;;;;;;;3.63;1.15;;;23.60;94.30;;;;;;5057986;28;20224;-54
2022/08/20 12:16:29;;;;;;;3.50;1.00;;;23.50;93.60;;;;;;5072740;28;20677;-55
2022/08/20 12:18:56;;;;;;;3.53;0.90;;;23.50;93.50;;;;;;5058079;28;20206;-50
2022/08/20 12:21:23;;;;;;;5.18;1.00;;;23.70;93.30;;;;;;5077969;28;20229;-51
2022/08/20 12:23:50;;;;;;;2.45;1.20;;;23.70;92.50;;;;;;5060097;28;20199;-55
2022/08/20 12:26:17;;;;;;;2.17;0.77;;;23.70;91.90;;;;;;5048228;28;20803;-52
2022/08/20 12:28:44;;;;;;;3.22;0.75;;;23.70;91.70;;;;;;5060905;28;20217;-51
2022/08/20 12:31:12;;;;;;;4.40;1.15;;;23.90;91.00;;;;;;5062171;28;20730;-54
2022/08/20 12:33:39;;;;;;;3.97;0.90;;;23.90;90.70;;;;;;5066415;28;20198;-50
2022/08/20 12:36:06;;;;;;;2.75;0.80;;;23.90;90.80;;;;;;5078314;28;20205;-55
2022/08/20 12:38:33;;;;;;;3.75;0.90;;;24.10;90.40;;;;;;5061370;28;20186;-53
2022/08/20 12:41:01;;;;;;;2.65;0.80;;;24.10;89.90;;;;;;5056937;28;20245;-48
2022/08/20 12:43:28;;;;;;;5.43;0.93;;;24.10;89.50;;;;;;5062455;28;20259;-49
2022/08/20 12:45:55;;;;;;;2.65;1.30;;;24.00;88.50;;;;;;5064253;28;20515;-52
2022/08/20 12:48:23;;;;;;;2.17;0.95;;;24.00;88.10;;;;;;5055998;28;20234;-54